sensor_id;sensor_type;location;lat;lon;timestamp;temperature;humidity
7684;DHT22;3884;48.616;12.872;2023-07-16T00:02:12;24.70;99.90
7684;DHT22;3884;48.616;12.872;2023-07-16T00:04:40;24.60;99.90
7684;DHT22;3884;48.616;12.872;2023-07-16T00:07:07;24.60;99.90
7684;DHT22;3884;48.616;12.872;2023-07-16T00:09:35;24.60;99.90
7684;DHT22;3884;48.616;12.872;2023-07-16T00:12:03;24.50;99.90
7684;DHT22;3884;48.616;12.872;2023-07-16T00:14:30;24.40;99.90
7684;DHT22;3884;48.616;12.872;2023-07-16T00:16:57;24.30;99.90
7684;DHT22;3884;48.616;12.872;2023-07-16T00:19:24;24.20;99.90
7684;DHT22;3884;48.616;12.872;2023-07-16T00:21:52;24.10;99.90
7684;DHT22;3884;48.616;12.872;2023-07-16T00:24:19;24.10;99.90
7684;DHT22;3884;48.616;12.872;2023-07-16T00:26:46;24.00;99.90
7684;DHT22;3884;48.616;12.872;2023-07-16T00:29:13;24.00;99.90
7684;DHT22;3884;48.616;12.872;2023-07-16T00:31:40;23.90;99.90
7684;DHT22;3884;48.616;12.872;2023-07-16T00:34:07;23.90;99.90
7684;DHT22;3884;48.616;12.872;2023-07-16T00:36:34;23.90;99.90
7684;DHT22;3884;48.616;12.872;2023-07-16T00:39:02;23.90;99.90
7684;DHT22;3884;48.616;12.872;2023-07-16T00:41:29;23.90;99.90
7684;DHT22;3884;48.616;12.872;2023-07-16T00:43:56;23.80;99.90
7684;DHT22;3884;48.616;12.872;2023-07-16T00:46:24;23.80;99.90
7684;DHT22;3884;48.616;12.872;2023-07-16T00:48:51;23.70;1.00
7684;DHT22;3884;48.616;12.872;2023-07-16T00:51:18;23.60;1.00
7684;DHT22;3884;48.616;12.872;2023-07-16T00:53:46;23.70;1.00
7684;DHT22;3884;48.616;12.872;2023-07-16T00:56:17;23.60;1.00
7684;DHT22;3884;48.616;12.872;2023-07-16T00:58:44;23.60;1.00
7684;DHT22;3884;48.616;12.872;2023-07-16T01:01:11;23.70;1.00
7684;DHT22;3884;48.616;12.872;2023-07-16T01:03:38;23.70;1.00
7684;DHT22;3884;48.616;12.872;2023-07-16T01:06:10;23.70;1.00
7684;DHT22;3884;48.616;12.872;2023-07-16T01:08:41;23.70;1.00
7684;DHT22;3884;48.616;12.872;2023-07-16T01:11:09;23.70;1.00
7684;DHT22;3884;48.616;12.872;2023-07-16T01:13:39;23.60;1.00
7684;DHT22;3884;48.616;12.872;2023-07-16T01:16:06;23.50;1.00
7684;DHT22;3884;48.616;12.872;2023-07-16T01:18:44;23.50;1.00
7684;DHT22;3884;48.616;12.872;2023-07-16T01:21:11;23.40;1.00
7684;DHT22;3884;48.616;12.872;2023-07-16T01:23:56;23.40;2.80
7684;DHT22;3884;48.616;12.872;2023-07-16T01:26:36;23.40;1.00
7684;DHT22;3884;48.616;12.872;2023-07-16T01:29:30;23.40;1.00
7684;DHT22;3884;48.616;12.872;2023-07-16T01:32:00;23.40;1.00
7684;DHT22;3884;48.616;12.872;2023-07-16T01:34:29;23.40;1.00
7684;DHT22;3884;48.616;12.872;2023-07-16T01:36:59;23.40;1.00
7684;DHT22;3884;48.616;12.872;2023-07-16T01:39:27;23.40;1.00
7684;DHT22;3884;48.616;12.872;2023-07-16T01:41:54;23.40;1.00
7684;DHT22;3884;48.616;12.872;2023-07-16T01:44:22;23.40;1.00
7684;DHT22;3884;48.616;12.872;2023-07-16T01:47:03;23.40;1.00
7684;DHT22;3884;48.616;12.872;2023-07-16T01:49:31;23.40;1.00
7684;DHT22;3884;48.616;12.872;2023-07-16T01:51:59;23.40;1.00
7684;DHT22;3884;48.616;12.872;2023-07-16T01:54:26;23.40;1.00
7684;DHT22;3884;48.616;12.872;2023-07-16T01:56:52;23.30;1.00
7684;DHT22;3884;48.616;12.872;2023-07-16T01:59:19;23.30;1.00
7684;DHT22;3884;48.616;12.872;2023-07-16T02:01:48;23.40;1.00
7684;DHT22;3884;48.616;12.872;2023-07-16T02:04:14;23.30;1.00
7684;DHT22;3884;48.616;12.872;2023-07-16T02:06:41;23.20;11.70
7684;DHT22;3884;48.616;12.872;2023-07-16T02:09:09;23.10;99.90
7684;DHT22;3884;48.616;12.872;2023-07-16T02:11:36;22.90;99.90
7684;DHT22;3884;48.616;12.872;2023-07-16T02:14:03;22.80;1.70
7684;DHT22;3884;48.616;12.872;2023-07-16T02:16:30;22.50;99.90
7684;DHT22;3884;48.616;12.872;2023-07-16T02:18:58;22.40;1.00
7684;DHT22;3884;48.616;12.872;2023-07-16T02:21:26;22.30;1.00
7684;DHT22;3884;48.616;12.872;2023-07-16T02:23:53;22.00;99.90
7684;DHT22;3884;48.616;12.872;2023-07-16T02:26:20;21.70;1.00
7684;DHT22;3884;48.616;12.872;2023-07-16T02:28:46;21.40;47.80
7684;DHT22;3884;48.616;12.872;2023-07-16T02:31:14;21.10;1.00
7684;DHT22;3884;48.616;12.872;2023-07-16T02:33:41;21.00;99.90
7684;DHT22;3884;48.616;12.872;2023-07-16T02:36:09;20.90;1.00
7684;DHT22;3884;48.616;12.872;2023-07-16T02:38:36;20.80;1.00
7684;DHT22;3884;48.616;12.872;2023-07-16T02:41:03;20.70;24.30
7684;DHT22;3884;48.616;12.872;2023-07-16T02:43:32;20.70;1.00
7684;DHT22;3884;48.616;12.872;2023-07-16T02:45:59;20.70;1.00
7684;DHT22;3884;48.616;12.872;2023-07-16T02:48:28;20.60;84.80
7684;DHT22;3884;48.616;12.872;2023-07-16T02:50:55;20.70;99.90
7684;DHT22;3884;48.616;12.872;2023-07-16T02:53:23;20.60;7.40
7684;DHT22;3884;48.616;12.872;2023-07-16T02:55:51;20.60;1.00
7684;DHT22;3884;48.616;12.872;2023-07-16T02:58:17;20.60;2.70
7684;DHT22;3884;48.616;12.872;2023-07-16T03:00:44;20.60;63.60
7684;DHT22;3884;48.616;12.872;2023-07-16T03:03:12;20.60;1.00
7684;DHT22;3884;48.616;12.872;2023-07-16T03:05:39;20.60;1.00
7684;DHT22;3884;48.616;12.872;2023-07-16T03:08:06;20.60;1.00
7684;DHT22;3884;48.616;12.872;2023-07-16T03:10:34;20.50;1.00
7684;DHT22;3884;48.616;12.872;2023-07-16T03:13:01;20.50;1.00
7684;DHT22;3884;48.616;12.872;2023-07-16T03:15:28;20.40;1.00
7684;DHT22;3884;48.616;12.872;2023-07-16T03:17:55;20.40;1.00
7684;DHT22;3884;48.616;12.872;2023-07-16T03:20:21;20.40;1.00
7684;DHT22;3884;48.616;12.872;2023-07-16T03:22:48;20.40;1.00
7684;DHT22;3884;48.616;12.872;2023-07-16T03:25:15;20.30;1.00
7684;DHT22;3884;48.616;12.872;2023-07-16T03:27:44;20.30;1.00
7684;DHT22;3884;48.616;12.872;2023-07-16T03:30:11;20.30;1.00
7684;DHT22;3884;48.616;12.872;2023-07-16T03:32:38;20.30;1.00
7684;DHT22;3884;48.616;12.872;2023-07-16T03:35:05;20.30;1.00
7684;DHT22;3884;48.616;12.872;2023-07-16T03:37:33;20.30;1.00
7684;DHT22;3884;48.616;12.872;2023-07-16T03:40:12;20.30;1.00
7684;DHT22;3884;48.616;12.872;2023-07-16T03:42:41;20.20;1.00
7684;DHT22;3884;48.616;12.872;2023-07-16T03:45:10;20.20;1.00
7684;DHT22;3884;48.616;12.872;2023-07-16T03:47:37;20.20;1.00
7684;DHT22;3884;48.616;12.872;2023-07-16T03:50:05;20.20;1.00
7684;DHT22;3884;48.616;12.872;2023-07-16T03:52:32;20.30;1.00
7684;DHT22;3884;48.616;12.872;2023-07-16T03:55:00;20.30;1.00
7684;DHT22;3884;48.616;12.872;2023-07-16T03:57:28;20.30;1.00
7684;DHT22;3884;48.616;12.872;2023-07-16T03:59:55;20.30;1.00
7684;DHT22;3884;48.616;12.872;2023-07-16T04:02:25;20.30;1.00
7684;DHT22;3884;48.616;12.872;2023-07-16T04:04:52;20.20;19.80
7684;DHT22;3884;48.616;12.872;2023-07-16T04:07:19;20.20;78.70
7684;DHT22;3884;48.616;12.872;2023-07-16T04:09:47;20.10;99.90
7684;DHT22;3884;48.616;12.872;2023-07-16T04:12:13;20.20;99.90
7684;DHT22;3884;48.616;12.872;2023-07-16T04:14:40;20.20;99.90
7684;DHT22;3884;48.616;12.872;2023-07-16T04:17:07;20.20;99.90
7684;DHT22;3884;48.616;12.872;2023-07-16T04:19:35;20.30;41.70
7684;DHT22;3884;48.616;12.872;2023-07-16T04:22:04;20.40;5.30
7684;DHT22;3884;48.616;12.872;2023-07-16T04:24:31;20.50;1.00
7684;DHT22;3884;48.616;12.872;2023-07-16T04:26:59;20.60;1.00
7684;DHT22;3884;48.616;12.872;2023-07-16T04:29:25;20.60;1.00
7684;DHT22;3884;48.616;12.872;2023-07-16T04:31:52;20.60;1.00
7684;DHT22;3884;48.616;12.872;2023-07-16T04:34:19;20.70;99.90
7684;DHT22;3884;48.616;12.872;2023-07-16T04:36:48;20.70;1.00
7684;DHT22;3884;48.616;12.872;2023-07-16T04:39:16;20.70;99.90
7684;DHT22;3884;48.616;12.872;2023-07-16T04:41:43;20.90;99.90
7684;DHT22;3884;48.616;12.872;2023-07-16T04:44:10;20.90;99.90
7684;DHT22;3884;48.616;12.872;2023-07-16T04:46:37;21.00;99.90
7684;DHT22;3884;48.616;12.872;2023-07-16T04:49:05;21.00;73.70
7684;DHT22;3884;48.616;12.872;2023-07-16T04:51:32;21.00;99.90
7684;DHT22;3884;48.616;12.872;2023-07-16T04:54:00;20.90;1.00
7684;DHT22;3884;48.616;12.872;2023-07-16T04:56:27;21.00;99.90
7684;DHT22;3884;48.616;12.872;2023-07-16T04:58:54;21.00;1.00
7684;DHT22;3884;48.616;12.872;2023-07-16T05:01:23;21.00;1.00
7684;DHT22;3884;48.616;12.872;2023-07-16T05:03:50;21.00;1.00
7684;DHT22;3884;48.616;12.872;2023-07-16T05:06:17;21.10;1.00
7684;DHT22;3884;48.616;12.872;2023-07-16T05:08:44;21.10;1.00
7684;DHT22;3884;48.616;12.872;2023-07-16T05:11:13;21.20;99.90
7684;DHT22;3884;48.616;12.872;2023-07-16T05:13:39;21.10;99.90
7684;DHT22;3884;48.616;12.872;2023-07-16T05:16:06;21.10;1.00
7684;DHT22;3884;48.616;12.872;2023-07-16T05:18:33;21.10;1.00
7684;DHT22;3884;48.616;12.872;2023-07-16T05:21:00;21.10;1.00
7684;DHT22;3884;48.616;12.872;2023-07-16T05:23:27;21.00;1.00
7684;DHT22;3884;48.616;12.872;2023-07-16T05:25:54;21.00;99.90
7684;DHT22;3884;48.616;12.872;2023-07-16T05:28:22;21.00;1.00
7684;DHT22;3884;48.616;12.872;2023-07-16T05:30:57;21.00;1.00
7684;DHT22;3884;48.616;12.872;2023-07-16T05:33:24;20.90;1.00
7684;DHT22;3884;48.616;12.872;2023-07-16T05:35:51;20.90;1.00
7684;DHT22;3884;48.616;12.872;2023-07-16T05:38:18;20.90;1.00
7684;DHT22;3884;48.616;12.872;2023-07-16T05:40:45;20.90;1.00
7684;DHT22;3884;48.616;12.872;2023-07-16T05:43:11;21.00;1.00
7684;DHT22;3884;48.616;12.872;2023-07-16T05:45:40;21.00;31.60
7684;DHT22;3884;48.616;12.872;2023-07-16T05:48:07;21.00;1.00
7684;DHT22;3884;48.616;12.872;2023-07-16T05:50:34;21.10;99.90
7684;DHT22;3884;48.616;12.872;2023-07-16T05:53:01;21.10;1.00
7684;DHT22;3884;48.616;12.872;2023-07-16T05:55:28;21.20;99.90
7684;DHT22;3884;48.616;12.872;2023-07-16T05:57:54;21.20;99.90
7684;DHT22;3884;48.616;12.872;2023-07-16T06:00:21;21.30;62.00
7684;DHT22;3884;48.616;12.872;2023-07-16T06:02:50;21.40;99.90
7684;DHT22;3884;48.616;12.872;2023-07-16T06:05:17;21.40;99.90
7684;DHT22;3884;48.616;12.872;2023-07-16T06:07:46;21.40;99.90
7684;DHT22;3884;48.616;12.872;2023-07-16T06:10:13;21.40;99.90
7684;DHT22;3884;48.616;12.872;2023-07-16T06:12:40;21.40;83.90
7684;DHT22;3884;48.616;12.872;2023-07-16T06:15:07;21.40;99.90
7684;DHT22;3884;48.616;12.872;2023-07-16T06:17:35;21.50;99.90
7684;DHT22;3884;48.616;12.872;2023-07-16T06:20:04;21.50;1.00
7684;DHT22;3884;48.616;12.872;2023-07-16T06:22:32;21.50;1.00
7684;DHT22;3884;48.616;12.872;2023-07-16T06:24:59;21.50;1.00
7684;DHT22;3884;48.616;12.872;2023-07-16T06:27:26;21.50;1.00
7684;DHT22;3884;48.616;12.872;2023-07-16T06:29:53;21.50;99.90
7684;DHT22;3884;48.616;12.872;2023-07-16T06:32:20;21.60;1.00
7684;DHT22;3884;48.616;12.872;2023-07-16T06:34:47;21.60;22.60
7684;DHT22;3884;48.616;12.872;2023-07-16T06:37:15;21.70;1.00
7684;DHT22;3884;48.616;12.872;2023-07-16T06:39:42;21.70;1.00
7684;DHT22;3884;48.616;12.872;2023-07-16T06:42:09;21.70;99.90
7684;DHT22;3884;48.616;12.872;2023-07-16T06:44:36;21.80;1.00
7684;DHT22;3884;48.616;12.872;2023-07-16T06:47:03;21.90;99.90
7684;DHT22;3884;48.616;12.872;2023-07-16T06:49:30;21.90;65.60
7684;DHT22;3884;48.616;12.872;2023-07-16T06:52:00;22.10;1.00
7684;DHT22;3884;48.616;12.872;2023-07-16T06:54:28;22.10;99.90
7684;DHT22;3884;48.616;12.872;2023-07-16T06:56:55;22.10;1.00
7684;DHT22;3884;48.616;12.872;2023-07-16T06:59:22;22.00;99.90
7684;DHT22;3884;48.616;12.872;2023-07-16T07:01:49;22.00;99.90
7684;DHT22;3884;48.616;12.872;2023-07-16T07:04:16;22.00;1.00
7684;DHT22;3884;48.616;12.872;2023-07-16T07:06:43;21.90;1.00
7684;DHT22;3884;48.616;12.872;2023-07-16T07:09:10;22.00;99.90
7684;DHT22;3884;48.616;12.872;2023-07-16T07:11:38;21.90;99.90
7684;DHT22;3884;48.616;12.872;2023-07-16T07:14:05;21.90;1.00
7684;DHT22;3884;48.616;12.872;2023-07-16T07:16:32;21.80;99.90
7684;DHT22;3884;48.616;12.872;2023-07-16T07:18:59;21.70;99.90
7684;DHT22;3884;48.616;12.872;2023-07-16T07:21:29;21.90;1.00
7684;DHT22;3884;48.616;12.872;2023-07-16T07:23:56;21.90;99.90
7684;DHT22;3884;48.616;12.872;2023-07-16T07:26:23;21.80;99.90
7684;DHT22;3884;48.616;12.872;2023-07-16T07:28:51;21.90;1.00
7684;DHT22;3884;48.616;12.872;2023-07-16T07:31:18;22.00;99.90
7684;DHT22;3884;48.616;12.872;2023-07-16T07:33:45;22.00;1.00
7684;DHT22;3884;48.616;12.872;2023-07-16T07:36:12;22.00;1.00
7684;DHT22;3884;48.616;12.872;2023-07-16T07:38:39;22.10;1.00
7684;DHT22;3884;48.616;12.872;2023-07-16T07:41:06;22.10;1.00
7684;DHT22;3884;48.616;12.872;2023-07-16T07:43:33;22.10;99.90
7684;DHT22;3884;48.616;12.872;2023-07-16T07:46:01;22.10;1.00
7684;DHT22;3884;48.616;12.872;2023-07-16T07:48:28;22.20;99.90
7684;DHT22;3884;48.616;12.872;2023-07-16T07:50:55;22.10;99.90
7684;DHT22;3884;48.616;12.872;2023-07-16T07:53:22;21.90;99.90
7684;DHT22;3884;48.616;12.872;2023-07-16T07:55:49;21.80;99.90
7684;DHT22;3884;48.616;12.872;2023-07-16T07:58:16;21.80;1.00
7684;DHT22;3884;48.616;12.872;2023-07-16T08:00:42;21.80;99.90
7684;DHT22;3884;48.616;12.872;2023-07-16T08:03:11;21.80;1.00
7684;DHT22;3884;48.616;12.872;2023-07-16T08:05:37;21.80;99.90
7684;DHT22;3884;48.616;12.872;2023-07-16T08:08:04;21.70;1.00
7684;DHT22;3884;48.616;12.872;2023-07-16T08:10:31;21.70;1.00
7684;DHT22;3884;48.616;12.872;2023-07-16T08:12:58;21.80;1.00
7684;DHT22;3884;48.616;12.872;2023-07-16T08:15:25;21.80;1.00
7684;DHT22;3884;48.616;12.872;2023-07-16T08:17:52;21.70;1.00
7684;DHT22;3884;48.616;12.872;2023-07-16T08:20:21;21.80;4.50
7684;DHT22;3884;48.616;12.872;2023-07-16T08:22:48;21.80;1.00
7684;DHT22;3884;48.616;12.872;2023-07-16T08:25:16;21.90;1.00
7684;DHT22;3884;48.616;12.872;2023-07-16T08:27:43;21.90;1.00
7684;DHT22;3884;48.616;12.872;2023-07-16T08:30:10;21.80;12.80
7684;DHT22;3884;48.616;12.872;2023-07-16T08:32:37;21.90;1.00
7684;DHT22;3884;48.616;12.872;2023-07-16T08:35:06;22.10;1.00
7684;DHT22;3884;48.616;12.872;2023-07-16T08:37:39;22.50;1.00
7684;DHT22;3884;48.616;12.872;2023-07-16T08:40:06;22.90;4.80
7684;DHT22;3884;48.616;12.872;2023-07-16T08:42:36;23.00;1.00
7684;DHT22;3884;48.616;12.872;2023-07-16T08:45:04;23.00;1.00
7684;DHT22;3884;48.616;12.872;2023-07-16T08:47:33;22.90;1.00
7684;DHT22;3884;48.616;12.872;2023-07-16T08:50:01;22.80;1.00
7684;DHT22;3884;48.616;12.872;2023-07-16T08:52:29;22.80;99.90
7684;DHT22;3884;48.616;12.872;2023-07-16T08:54:57;23.10;16.40
7684;DHT22;3884;48.616;12.872;2023-07-16T08:57:26;23.10;1.00
7684;DHT22;3884;48.616;12.872;2023-07-16T08:59:54;23.40;1.00
7684;DHT22;3884;48.616;12.872;2023-07-16T09:02:23;23.70;1.00
7684;DHT22;3884;48.616;12.872;2023-07-16T09:04:50;23.80;1.00
7684;DHT22;3884;48.616;12.872;2023-07-16T09:07:17;24.00;1.00
7684;DHT22;3884;48.616;12.872;2023-07-16T09:09:55;24.10;99.90
7684;DHT22;3884;48.616;12.872;2023-07-16T09:12:25;24.40;99.90
7684;DHT22;3884;48.616;12.872;2023-07-16T09:14:53;24.40;99.90
7684;DHT22;3884;48.616;12.872;2023-07-16T09:17:21;24.60;99.90
7684;DHT22;3884;48.616;12.872;2023-07-16T09:19:48;24.70;99.90
7684;DHT22;3884;48.616;12.872;2023-07-16T09:22:17;24.70;99.90
7684;DHT22;3884;48.616;12.872;2023-07-16T09:24:45;24.60;99.90
7684;DHT22;3884;48.616;12.872;2023-07-16T09:27:13;24.70;99.90
7684;DHT22;3884;48.616;12.872;2023-07-16T09:29:41;24.90;99.90
7684;DHT22;3884;48.616;12.872;2023-07-16T09:32:08;25.10;99.90
7684;DHT22;3884;48.616;12.872;2023-07-16T09:34:35;25.50;99.90
7684;DHT22;3884;48.616;12.872;2023-07-16T09:37:05;25.70;99.90
7684;DHT22;3884;48.616;12.872;2023-07-16T09:39:32;25.60;99.90
7684;DHT22;3884;48.616;12.872;2023-07-16T09:41:59;25.60;99.90
7684;DHT22;3884;48.616;12.872;2023-07-16T09:44:26;25.70;99.90
7684;DHT22;3884;48.616;12.872;2023-07-16T09:46:55;25.90;99.90
7684;DHT22;3884;48.616;12.872;2023-07-16T09:49:22;25.90;99.90
7684;DHT22;3884;48.616;12.872;2023-07-16T09:51:52;26.10;99.90
7684;DHT22;3884;48.616;12.872;2023-07-16T09:54:25;26.20;99.90
7684;DHT22;3884;48.616;12.872;2023-07-16T09:56:57;26.40;99.90
7684;DHT22;3884;48.616;12.872;2023-07-16T09:59:27;26.30;99.90
7684;DHT22;3884;48.616;12.872;2023-07-16T10:01:56;26.30;99.90
7684;DHT22;3884;48.616;12.872;2023-07-16T10:04:23;26.40;99.90
7684;DHT22;3884;48.616;12.872;2023-07-16T10:06:54;26.70;99.90
7684;DHT22;3884;48.616;12.872;2023-07-16T10:09:40;26.70;99.90
7684;DHT22;3884;48.616;12.872;2023-07-16T10:12:12;26.90;99.90
7684;DHT22;3884;48.616;12.872;2023-07-16T10:14:40;26.90;99.90
7684;DHT22;3884;48.616;12.872;2023-07-16T10:17:12;26.70;99.90
7684;DHT22;3884;48.616;12.872;2023-07-16T10:19:55;26.70;99.90
7684;DHT22;3884;48.616;12.872;2023-07-16T10:22:34;26.80;99.90
7684;DHT22;3884;48.616;12.872;2023-07-16T10:25:03;27.00;99.20
7684;DHT22;3884;48.616;12.872;2023-07-16T10:27:31;27.10;95.80
7684;DHT22;3884;48.616;12.872;2023-07-16T10:29:58;27.00;99.30
7684;DHT22;3884;48.616;12.872;2023-07-16T10:32:29;27.00;99.50
7684;DHT22;3884;48.616;12.872;2023-07-16T10:34:56;27.10;90.70
7684;DHT22;3884;48.616;12.872;2023-07-16T10:37:23;27.10;92.30
7684;DHT22;3884;48.616;12.872;2023-07-16T10:39:51;26.90;86.30
7684;DHT22;3884;48.616;12.872;2023-07-16T10:42:19;26.90;90.50
7684;DHT22;3884;48.616;12.872;2023-07-16T10:44:49;27.00;80.30
7684;DHT22;3884;48.616;12.872;2023-07-16T10:47:22;27.20;91.30
7684;DHT22;3884;48.616;12.872;2023-07-16T10:49:53;27.10;76.80
7684;DHT22;3884;48.616;12.872;2023-07-16T10:52:21;27.10;67.20
7684;DHT22;3884;48.616;12.872;2023-07-16T10:54:48;27.10;64.60
7684;DHT22;3884;48.616;12.872;2023-07-16T10:57:16;27.10;63.40
7684;DHT22;3884;48.616;12.872;2023-07-16T10:59:43;27.00;56.10
7684;DHT22;3884;48.616;12.872;2023-07-16T11:02:12;27.00;63.40
7684;DHT22;3884;48.616;12.872;2023-07-16T11:04:39;27.00;58.20
7684;DHT22;3884;48.616;12.872;2023-07-16T11:07:09;27.20;51.50
7684;DHT22;3884;48.616;12.872;2023-07-16T11:09:41;27.50;60.20
7684;DHT22;3884;48.616;12.872;2023-07-16T11:12:10;27.60;37.80
7684;DHT22;3884;48.616;12.872;2023-07-16T11:14:38;27.60;9.20
7684;DHT22;3884;48.616;12.872;2023-07-16T11:17:05;27.70;21.20
7684;DHT22;3884;48.616;12.872;2023-07-16T11:19:34;27.60;9.80
7684;DHT22;3884;48.616;12.872;2023-07-16T11:22:03;27.70;23.40
7684;DHT22;3884;48.616;12.872;2023-07-16T11:24:38;27.80;18.50
7684;DHT22;3884;48.616;12.872;2023-07-16T11:27:12;28.10;16.90
7684;DHT22;3884;48.616;12.872;2023-07-16T11:29:39;28.20;9.20
7684;DHT22;3884;48.616;12.872;2023-07-16T11:32:08;28.50;8.10
7684;DHT22;3884;48.616;12.872;2023-07-16T11:34:37;28.40;1.00
7684;DHT22;3884;48.616;12.872;2023-07-16T11:37:08;28.00;1.00
7684;DHT22;3884;48.616;12.872;2023-07-16T11:39:37;28.00;1.00
7684;DHT22;3884;48.616;12.872;2023-07-16T11:42:05;27.90;1.00
7684;DHT22;3884;48.616;12.872;2023-07-16T11:44:33;27.80;1.00
7684;DHT22;3884;48.616;12.872;2023-07-16T11:47:00;27.80;1.00
7684;DHT22;3884;48.616;12.872;2023-07-16T11:49:27;27.90;1.00
7684;DHT22;3884;48.616;12.872;2023-07-16T11:51:54;28.20;1.00
7684;DHT22;3884;48.616;12.872;2023-07-16T11:54:21;28.10;1.00
7684;DHT22;3884;48.616;12.872;2023-07-16T11:56:49;28.00;1.00
7684;DHT22;3884;48.616;12.872;2023-07-16T11:59:16;28.10;1.00
7684;DHT22;3884;48.616;12.872;2023-07-16T12:01:46;28.10;1.00
7684;DHT22;3884;48.616;12.872;2023-07-16T12:04:14;28.40;1.00
7684;DHT22;3884;48.616;12.872;2023-07-16T12:06:41;28.40;1.00
7684;DHT22;3884;48.616;12.872;2023-07-16T12:09:07;28.30;1.00
7684;DHT22;3884;48.616;12.872;2023-07-16T12:11:34;28.60;1.00
7684;DHT22;3884;48.616;12.872;2023-07-16T12:14:05;28.90;1.00
7684;DHT22;3884;48.616;12.872;2023-07-16T12:16:32;29.00;1.00
7684;DHT22;3884;48.616;12.872;2023-07-16T12:18:59;29.00;1.00
7684;DHT22;3884;48.616;12.872;2023-07-16T12:21:26;28.80;1.00
7684;DHT22;3884;48.616;12.872;2023-07-16T12:23:52;28.50;1.00
7684;DHT22;3884;48.616;12.872;2023-07-16T12:26:19;28.30;1.00
7684;DHT22;3884;48.616;12.872;2023-07-16T12:28:46;28.40;1.00
7684;DHT22;3884;48.616;12.872;2023-07-16T12:31:15;28.50;1.00
7684;DHT22;3884;48.616;12.872;2023-07-16T12:33:43;28.70;1.00
7684;DHT22;3884;48.616;12.872;2023-07-16T12:36:10;28.70;1.00
7684;DHT22;3884;48.616;12.872;2023-07-16T12:38:37;28.80;1.00
7684;DHT22;3884;48.616;12.872;2023-07-16T12:41:04;28.80;1.00
7684;DHT22;3884;48.616;12.872;2023-07-16T12:43:31;28.70;1.00
7684;DHT22;3884;48.616;12.872;2023-07-16T12:46:00;29.00;1.00
7684;DHT22;3884;48.616;12.872;2023-07-16T12:48:29;29.00;1.00
7684;DHT22;3884;48.616;12.872;2023-07-16T12:50:56;29.20;1.00
7684;DHT22;3884;48.616;12.872;2023-07-16T12:53:23;29.30;1.00
7684;DHT22;3884;48.616;12.872;2023-07-16T12:55:52;29.60;1.00
7684;DHT22;3884;48.616;12.872;2023-07-16T12:58:20;29.80;1.00
7684;DHT22;3884;48.616;12.872;2023-07-16T13:00:46;29.80;1.00
7684;DHT22;3884;48.616;12.872;2023-07-16T13:03:13;30.00;1.00
7684;DHT22;3884;48.616;12.872;2023-07-16T13:05:43;30.20;1.00
7684;DHT22;3884;48.616;12.872;2023-07-16T13:08:10;30.20;1.00
7684;DHT22;3884;48.616;12.872;2023-07-16T13:10:37;30.40;1.00
7684;DHT22;3884;48.616;12.872;2023-07-16T13:13:06;30.50;1.00
7684;DHT22;3884;48.616;12.872;2023-07-16T13:15:33;30.60;1.00
7684;DHT22;3884;48.616;12.872;2023-07-16T13:18:00;30.80;1.00
7684;DHT22;3884;48.616;12.872;2023-07-16T13:20:27;30.60;1.00
7684;DHT22;3884;48.616;12.872;2023-07-16T13:22:56;30.30;1.00
7684;DHT22;3884;48.616;12.872;2023-07-16T13:25:24;30.40;1.00
7684;DHT22;3884;48.616;12.872;2023-07-16T13:27:50;30.90;1.00
7684;DHT22;3884;48.616;12.872;2023-07-16T13:30:19;30.70;1.00
7684;DHT22;3884;48.616;12.872;2023-07-16T13:32:45;30.50;1.00
7684;DHT22;3884;48.616;12.872;2023-07-16T13:35:14;30.30;1.00
7684;DHT22;3884;48.616;12.872;2023-07-16T13:37:41;30.00;1.00
7684;DHT22;3884;48.616;12.872;2023-07-16T13:40:10;29.80;1.00
7684;DHT22;3884;48.616;12.872;2023-07-16T13:42:37;30.20;1.00
7684;DHT22;3884;48.616;12.872;2023-07-16T13:45:05;30.50;1.00
7684;DHT22;3884;48.616;12.872;2023-07-16T13:47:32;30.60;1.00
7684;DHT22;3884;48.616;12.872;2023-07-16T13:49:59;30.60;1.00
7684;DHT22;3884;48.616;12.872;2023-07-16T13:52:26;29.90;1.00
7684;DHT22;3884;48.616;12.872;2023-07-16T13:54:53;30.00;1.00
7684;DHT22;3884;48.616;12.872;2023-07-16T13:57:21;30.40;1.00
7684;DHT22;3884;48.616;12.872;2023-07-16T13:59:48;31.00;1.00
7684;DHT22;3884;48.616;12.872;2023-07-16T14:02:14;31.40;1.00
7684;DHT22;3884;48.616;12.872;2023-07-16T14:04:41;31.60;1.00
7684;DHT22;3884;48.616;12.872;2023-07-16T14:07:08;31.90;1.00
7684;DHT22;3884;48.616;12.872;2023-07-16T14:09:35;31.50;1.00
7684;DHT22;3884;48.616;12.872;2023-07-16T14:12:03;31.20;1.00
7684;DHT22;3884;48.616;12.872;2023-07-16T14:14:31;30.50;1.00
7684;DHT22;3884;48.616;12.872;2023-07-16T14:16:58;30.40;1.00
7684;DHT22;3884;48.616;12.872;2023-07-16T14:19:25;30.30;1.00
7684;DHT22;3884;48.616;12.872;2023-07-16T14:21:52;30.80;1.00
7684;DHT22;3884;48.616;12.872;2023-07-16T14:24:19;31.20;1.00
7684;DHT22;3884;48.616;12.872;2023-07-16T14:26:45;31.30;1.00
7684;DHT22;3884;48.616;12.872;2023-07-16T14:29:12;31.20;1.00
7684;DHT22;3884;48.616;12.872;2023-07-16T14:31:41;31.20;1.00
7684;DHT22;3884;48.616;12.872;2023-07-16T14:34:08;31.50;1.00
7684;DHT22;3884;48.616;12.872;2023-07-16T14:36:36;31.60;1.00
7684;DHT22;3884;48.616;12.872;2023-07-16T14:39:03;31.50;1.00
7684;DHT22;3884;48.616;12.872;2023-07-16T14:41:30;31.40;1.00
7684;DHT22;3884;48.616;12.872;2023-07-16T14:43:57;31.20;1.00
7684;DHT22;3884;48.616;12.872;2023-07-16T14:46:23;31.20;1.00
7684;DHT22;3884;48.616;12.872;2023-07-16T14:48:52;30.70;1.00
7684;DHT22;3884;48.616;12.872;2023-07-16T14:51:21;30.50;1.00
7684;DHT22;3884;48.616;12.872;2023-07-16T14:53:48;30.60;1.00
7684;DHT22;3884;48.616;12.872;2023-07-16T14:56:15;30.70;1.00
7684;DHT22;3884;48.616;12.872;2023-07-16T14:58:42;30.90;1.00
7684;DHT22;3884;48.616;12.872;2023-07-16T15:01:09;31.30;1.00
7684;DHT22;3884;48.616;12.872;2023-07-16T15:03:36;31.20;1.00
7684;DHT22;3884;48.616;12.872;2023-07-16T15:06:04;30.90;1.00
7684;DHT22;3884;48.616;12.872;2023-07-16T15:08:32;31.00;1.00
7684;DHT22;3884;48.616;12.872;2023-07-16T15:10:59;31.10;1.00
7684;DHT22;3884;48.616;12.872;2023-07-16T15:13:26;30.90;1.00
7684;DHT22;3884;48.616;12.872;2023-07-16T15:15:55;30.60;1.00
7684;DHT22;3884;48.616;12.872;2023-07-16T15:18:23;30.80;1.00
7684;DHT22;3884;48.616;12.872;2023-07-16T15:20:56;31.10;1.00
7684;DHT22;3884;48.616;12.872;2023-07-16T15:23:26;31.60;1.00
7684;DHT22;3884;48.616;12.872;2023-07-16T15:25:53;31.50;1.00
7684;DHT22;3884;48.616;12.872;2023-07-16T15:28:21;31.30;1.00
7684;DHT22;3884;48.616;12.872;2023-07-16T15:30:48;31.00;1.00
7684;DHT22;3884;48.616;12.872;2023-07-16T15:33:15;31.30;1.00
7684;DHT22;3884;48.616;12.872;2023-07-16T15:35:42;31.10;1.00
7684;DHT22;3884;48.616;12.872;2023-07-16T15:38:09;31.10;1.00
7684;DHT22;3884;48.616;12.872;2023-07-16T15:40:38;31.30;1.00
7684;DHT22;3884;48.616;12.872;2023-07-16T15:43:06;30.60;1.00
7684;DHT22;3884;48.616;12.872;2023-07-16T15:45:33;30.70;1.00
7684;DHT22;3884;48.616;12.872;2023-07-16T15:48:00;30.90;1.00
7684;DHT22;3884;48.616;12.872;2023-07-16T15:50:27;30.90;1.00
7684;DHT22;3884;48.616;12.872;2023-07-16T15:52:54;31.00;1.00
7684;DHT22;3884;48.616;12.872;2023-07-16T15:55:22;31.00;1.00
7684;DHT22;3884;48.616;12.872;2023-07-16T15:57:50;31.00;1.00
7684;DHT22;3884;48.616;12.872;2023-07-16T16:00:17;30.20;1.00
7684;DHT22;3884;48.616;12.872;2023-07-16T16:02:47;30.10;1.00